createdAt,value
2023-02-02T00:00:34.111Z,10.50
2023-02-02T00:01:34.098Z,9.30
2023-02-02T00:02:34.219Z,10.90
2023-02-02T00:03:34.118Z,11.40
2023-02-02T00:04:34.076Z,11.10
2023-02-02T00:05:34.092Z,8.50
2023-02-02T00:06:34.066Z,8.50
2023-02-02T00:07:34.037Z,12.40
2023-02-02T00:08:34.038Z,8.80
2023-02-02T00:09:34.050Z,11.80
2023-02-02T00:10:34.106Z,9.50
2023-02-02T00:11:34.018Z,14.10
2023-02-02T00:12:34.006Z,12.90
2023-02-02T00:13:34.003Z,10.20
2023-02-02T00:14:33.965Z,10.90
2023-02-02T00:15:33.980Z,10.00
2023-02-02T00:16:34.147Z,10.20
2023-02-02T00:17:33.956Z,10.50
2023-02-02T00:18:33.940Z,12.30
2023-02-02T00:19:33.918Z,9.00
2023-02-02T00:20:33.927Z,10.70
2023-02-02T00:21:33.897Z,13.50
2023-02-02T00:22:33.913Z,11.00
2023-02-02T00:23:33.861Z,11.30
2023-02-02T00:24:33.866Z,12.60
2023-02-02T00:25:33.878Z,13.10
2023-02-02T00:26:33.880Z,9.80
2023-02-02T00:27:33.825Z,13.30
2023-02-02T00:28:33.860Z,13.40
2023-02-02T00:29:33.816Z,9.00
2023-02-02T00:30:33.828Z,11.40
2023-02-02T00:31:33.836Z,13.50
2023-02-02T00:32:33.866Z,15.50
2023-02-02T00:33:33.765Z,11.00
2023-02-02T00:34:33.760Z,11.80
2023-02-02T00:35:33.742Z,13.00
2023-02-02T00:36:33.740Z,12.00
2023-02-02T00:37:33.746Z,8.40
2023-02-02T00:38:33.738Z,11.10
2023-02-02T00:39:33.691Z,12.70
2023-02-02T00:40:33.716Z,14.10
2023-02-02T00:41:33.676Z,12.30
2023-02-02T00:42:33.667Z,12.70
2023-02-02T00:43:33.665Z,14.90
2023-02-02T00:44:33.729Z,13.50
2023-02-02T00:45:33.658Z,13.90
2023-02-02T00:46:33.630Z,11.90
2023-02-02T00:47:33.606Z,13.00
2023-02-02T00:48:33.632Z,9.80
2023-02-02T00:49:33.650Z,12.50
2023-02-02T00:50:33.592Z,11.90
2023-02-02T00:51:33.605Z,16.00
2023-02-02T00:52:33.611Z,15.30
2023-02-02T00:53:33.557Z,14.70
2023-02-02T00:54:33.548Z,17.30
2023-02-02T00:55:33.545Z,14.90
2023-02-02T00:56:33.843Z,14.90
2023-02-02T00:57:33.512Z,13.60
2023-02-02T00:58:33.506Z,15.70
2023-02-02T00:59:33.505Z,16.30
2023-02-02T01:00:33.472Z,14.40
2023-02-02T01:01:33.483Z,13.70
2023-02-02T01:02:33.531Z,14.60
2023-02-02T01:03:33.445Z,13.40
2023-02-02T01:04:33.440Z,15.60
2023-02-02T01:05:33.419Z,16.60
2023-02-02T01:06:33.433Z,14.60
2023-02-02T01:07:33.421Z,11.40
2023-02-02T01:08:33.392Z,12.20
2023-02-02T01:09:33.373Z,14.50
2023-02-02T01:10:33.399Z,12.90
2023-02-02T01:11:33.382Z,10.10
2023-02-02T01:12:33.380Z,13.10
2023-02-02T01:13:33.329Z,12.70
2023-02-02T01:14:33.348Z,17.40
2023-02-02T01:15:33.341Z,13.20
2023-02-02T01:16:33.414Z,11.70
2023-02-02T01:17:33.328Z,13.30
2023-02-02T01:18:33.293Z,11.90
2023-02-02T01:19:33.271Z,11.70
2023-02-02T01:20:33.270Z,11.30
2023-02-02T01:21:33.499Z,15.10
2023-02-02T01:22:33.271Z,10.90
2023-02-02T01:23:33.291Z,11.40
2023-02-02T01:24:33.245Z,9.00
2023-02-02T01:25:33.310Z,10.80
2023-02-02T01:26:33.247Z,13.20
2023-02-02T01:27:33.210Z,11.90
2023-02-02T01:28:33.280Z,13.60
2023-02-02T01:29:33.159Z,12.50
2023-02-02T01:30:33.190Z,13.50
2023-02-02T01:31:33.185Z,12.30
2023-02-02T01:32:33.194Z,13.80
2023-02-02T01:33:33.114Z,14.20
2023-02-02T01:34:33.178Z,14.70
2023-02-02T01:35:33.127Z,13.50
2023-02-02T01:36:33.116Z,11.90
2023-02-02T01:37:33.090Z,13.40
2023-02-02T01:38:33.068Z,15.80
2023-02-02T01:39:34.320Z,11.80
2023-02-02T01:40:33.116Z,11.80
2023-02-02T01:41:33.066Z,13.90
2023-02-02T01:42:33.057Z,14.40
2023-02-02T01:43:33.092Z,12.30
2023-02-02T01:44:33.020Z,14.10
2023-02-02T01:45:33.042Z,13.20
2023-02-02T01:46:32.976Z,13.80
2023-02-02T01:47:32.997Z,14.80
2023-02-02T01:48:33.061Z,13.60
2023-02-02T01:49:32.967Z,18.80
2023-02-02T01:50:32.973Z,10.10
2023-02-02T01:51:32.946Z,12.40
2023-02-02T01:52:32.934Z,12.20
2023-02-02T01:53:32.932Z,13.20
2023-02-02T01:54:32.942Z,14.30
2023-02-02T01:55:32.914Z,12.50
2023-02-02T01:56:32.907Z,13.70
2023-02-02T01:57:32.906Z,13.70
2023-02-02T01:58:32.856Z,15.70
2023-02-02T01:59:32.876Z,15.60
2023-02-02T02:00:32.860Z,17.60
2023-02-02T02:01:32.862Z,14.40
2023-02-02T02:02:32.894Z,15.40
2023-02-02T02:03:32.866Z,16.70
2023-02-02T02:04:32.796Z,19.50
2023-02-02T02:05:32.794Z,17.20
2023-02-02T02:06:32.844Z,15.70
2023-02-02T02:07:32.769Z,18.00
2023-02-02T02:08:32.771Z,17.40
2023-02-02T02:09:32.751Z,16.80
2023-02-02T02:10:32.727Z,17.60
2023-02-02T02:11:32.747Z,18.20
2023-02-02T02:12:32.734Z,18.90
2023-02-02T02:13:32.725Z,20.20
2023-02-02T02:14:32.709Z,16.00
2023-02-02T02:15:32.814Z,21.00
2023-02-02T02:16:32.762Z,17.00
2023-02-02T02:17:32.681Z,14.80
2023-02-02T02:18:32.669Z,19.20
2023-02-02T02:19:32.632Z,23.20
2023-02-02T02:20:32.612Z,12.10
2023-02-02T02:21:32.653Z,19.70
2023-02-02T02:22:32.621Z,17.60
2023-02-02T02:23:32.594Z,17.20
2023-02-02T02:24:32.603Z,16.30
2023-02-02T02:25:32.597Z,23.40
2023-02-02T02:26:32.644Z,20.30
2023-02-02T02:27:32.592Z,18.20
2023-02-02T02:28:32.532Z,23.80
2023-02-02T02:29:32.552Z,19.80
2023-02-02T02:30:32.613Z,22.90
2023-02-02T02:31:32.621Z,17.30
2023-02-02T02:32:32.569Z,17.60
2023-02-02T02:33:32.514Z,21.00
2023-02-02T02:34:32.490Z,23.40
2023-02-02T02:35:32.529Z,19.20
2023-02-02T02:36:32.450Z,16.60
2023-02-02T02:37:32.443Z,21.50
2023-02-02T02:38:32.433Z,22.30
2023-02-02T02:39:32.441Z,25.10
2023-02-02T02:40:32.462Z,21.80
2023-02-02T02:41:32.420Z,17.60
2023-02-02T02:42:32.454Z,20.50
2023-02-02T02:43:32.380Z,19.50
2023-02-02T02:44:32.384Z,12.10
2023-02-02T02:45:32.372Z,13.40
2023-02-02T02:46:32.474Z,20.20
2023-02-02T02:47:32.388Z,14.90
2023-02-02T02:48:32.335Z,27.90
2023-02-02T02:49:32.355Z,18.90
2023-02-02T02:50:32.301Z,24.60
2023-02-02T02:51:32.332Z,18.30
2023-02-02T02:52:32.370Z,11.90
2023-02-02T02:53:32.274Z,16.70
2023-02-02T02:54:32.281Z,19.60
2023-02-02T02:55:32.276Z,20.20
2023-02-02T02:56:32.244Z,15.40
2023-02-02T02:57:32.280Z,17.60
2023-02-02T02:58:32.218Z,21.20
2023-02-02T02:59:32.209Z,16.90
2023-02-02T03:00:32.229Z,19.80
2023-02-02T03:01:32.262Z,19.90
2023-02-02T03:02:32.208Z,13.90
2023-02-02T03:03:32.224Z,18.10
2023-02-02T03:04:32.157Z,21.80
2023-02-02T03:05:32.199Z,17.10
2023-02-02T03:06:32.128Z,17.40
2023-02-02T03:07:32.132Z,16.20
2023-02-02T03:08:32.159Z,11.60
2023-02-02T03:09:32.109Z,20.90
2023-02-02T03:10:32.108Z,22.10
2023-02-02T03:11:32.108Z,23.20
2023-02-02T03:12:32.088Z,15.80
2023-02-02T03:13:32.076Z,18.20
2023-02-02T03:14:32.108Z,14.80
2023-02-02T03:15:32.043Z,13.90
2023-02-02T03:16:32.073Z,10.80
2023-02-02T03:17:32.056Z,14.20
2023-02-02T03:18:32.040Z,18.10
2023-02-02T03:19:32.084Z,11.40
2023-02-02T03:20:31.996Z,16.20
2023-02-02T03:21:32.001Z,19.00
2023-02-02T03:22:31.985Z,13.20
2023-02-02T03:23:32.217Z,12.60
2023-02-02T03:24:31.961Z,16.60
2023-02-02T03:25:31.956Z,10.70
2023-02-02T03:26:31.972Z,13.40
2023-02-02T03:27:31.979Z,16.70
2023-02-02T03:28:31.926Z,13.90
2023-02-02T03:29:31.903Z,12.50
2023-02-02T03:30:31.918Z,11.40
2023-02-02T03:31:31.971Z,14.60
2023-02-02T03:32:31.996Z,19.50
2023-02-02T03:33:31.904Z,13.80
2023-02-02T03:34:31.858Z,14.30
2023-02-02T03:35:31.823Z,9.10
2023-02-02T03:36:31.866Z,14.30
2023-02-02T03:37:31.811Z,8.90
2023-02-02T03:38:31.803Z,10.30
2023-02-02T03:39:31.803Z,9.70
2023-02-02T03:40:31.856Z,11.10
2023-02-02T03:41:31.806Z,12.40
2023-02-02T03:42:31.775Z,10.50
2023-02-02T03:43:31.740Z,13.60
2023-02-02T03:44:31.724Z,13.20
2023-02-02T03:45:31.735Z,13.60
2023-02-02T03:46:31.757Z,10.50
2023-02-02T03:47:31.696Z,11.60
2023-02-02T03:48:31.686Z,10.30
2023-02-02T03:49:31.869Z,11.30
2023-02-02T03:50:31.664Z,12.30
2023-02-02T03:51:31.667Z,8.80
2023-02-02T03:52:31.667Z,11.00
2023-02-02T03:53:31.645Z,13.10
2023-02-02T03:54:31.655Z,12.70
2023-02-02T03:55:31.644Z,12.50
2023-02-02T03:56:31.627Z,10.70
2023-02-02T03:57:31.602Z,12.00
2023-02-02T03:58:31.587Z,12.90
2023-02-02T03:59:31.720Z,9.50
2023-02-02T04:00:31.593Z,10.10
2023-02-02T04:01:31.626Z,7.20
2023-02-02T04:02:31.609Z,11.50
2023-02-02T04:03:31.541Z,12.80
2023-02-02T04:04:31.537Z,7.30
2023-02-02T04:05:31.534Z,11.40
2023-02-02T04:06:31.553Z,13.10
2023-02-02T04:07:31.512Z,9.30
2023-02-02T04:08:31.516Z,11.00
2023-02-02T04:09:31.486Z,10.30
2023-02-02T04:10:31.497Z,10.20
2023-02-02T04:11:31.443Z,12.60
2023-02-02T04:12:31.451Z,7.60
2023-02-02T04:13:31.452Z,9.70
2023-02-02T04:14:31.411Z,9.30
2023-02-02T04:15:31.400Z,10.90
2023-02-02T04:16:31.423Z,8.30
2023-02-02T04:17:31.427Z,8.10
2023-02-02T04:18:31.380Z,11.80
2023-02-02T04:19:31.367Z,10.00
2023-02-02T04:20:31.371Z,10.20
2023-02-02T04:21:31.362Z,10.20
2023-02-02T04:22:31.328Z,9.20
2023-02-02T04:23:31.372Z,11.50
2023-02-02T04:24:31.322Z,10.20
2023-02-02T04:25:31.312Z,12.10
2023-02-02T04:26:31.427Z,10.50
2023-02-02T04:27:31.314Z,14.50
2023-02-02T04:28:31.274Z,11.30
2023-02-02T04:29:31.252Z,12.40
2023-02-02T04:30:31.282Z,10.30
2023-02-02T04:31:31.243Z,9.40
2023-02-02T04:32:31.264Z,13.90
2023-02-02T04:33:31.217Z,10.00
2023-02-02T04:34:31.233Z,14.10
2023-02-02T04:35:31.191Z,12.10
2023-02-02T04:36:31.180Z,11.80
2023-02-02T04:37:31.199Z,11.60
2023-02-02T04:38:31.160Z,18.90
2023-02-02T04:39:31.256Z,18.10
2023-02-02T04:40:31.164Z,12.60
2023-02-02T04:41:31.188Z,17.60
2023-02-02T04:42:31.146Z,18.70
2023-02-02T04:43:31.152Z,20.20
2023-02-02T04:44:31.127Z,23.50
2023-02-02T04:45:31.127Z,16.30
2023-02-02T04:46:31.110Z,24.00
2023-02-02T04:47:31.118Z,24.10
2023-02-02T04:48:31.083Z,17.90
2023-02-02T04:49:31.207Z,20.00
2023-02-02T04:50:31.022Z,28.80
2023-02-02T04:51:31.022Z,23.90
2023-02-02T04:52:31.010Z,20.90
2023-02-02T04:53:31.029Z,25.60
2023-02-02T04:54:31.040Z,28.80
2023-02-02T04:55:31.011Z,25.60
2023-02-02T04:56:30.984Z,29.00
2023-02-02T04:57:30.968Z,30.30
2023-02-02T04:58:31.023Z,29.40
2023-02-02T04:59:30.951Z,27.90
2023-02-02T05:00:30.969Z,26.70
2023-02-02T05:01:31.064Z,29.40
2023-02-02T05:02:30.941Z,32.60
2023-02-02T05:03:30.918Z,30.50
2023-02-02T05:04:30.954Z,31.10
2023-02-02T05:05:30.888Z,31.00
2023-02-02T05:06:30.862Z,32.80
2023-02-02T05:07:30.909Z,29.70
2023-02-02T05:08:30.880Z,27.00
2023-02-02T05:09:30.885Z,27.80
2023-02-02T05:10:30.828Z,28.70
2023-02-02T05:11:30.866Z,31.50
2023-02-02T05:12:30.840Z,30.30
2023-02-02T05:13:30.805Z,35.30
2023-02-02T05:14:30.782Z,31.20
2023-02-02T05:15:30.797Z,24.40
2023-02-02T05:16:30.854Z,30.50
2023-02-02T05:17:30.768Z,25.50
2023-02-02T05:18:30.748Z,24.60
2023-02-02T05:19:30.728Z,31.70
2023-02-02T05:20:30.740Z,30.80
2023-02-02T05:21:30.705Z,28.20
2023-02-02T05:22:30.698Z,32.20
2023-02-02T05:23:30.702Z,30.00
2023-02-02T05:24:30.668Z,26.50
2023-02-02T05:25:30.666Z,28.10
2023-02-02T05:26:30.741Z,33.10
2023-02-02T05:27:30.671Z,31.20
2023-02-02T05:28:30.628Z,33.50
2023-02-02T05:29:30.634Z,31.60
2023-02-02T05:30:33.191Z,29.40
2023-02-02T05:31:30.644Z,30.30
2023-02-02T05:32:30.596Z,21.90
2023-02-02T05:33:30.566Z,32.80
2023-02-02T05:34:30.608Z,19.30
2023-02-02T05:35:30.620Z,25.70
2023-02-02T05:36:30.558Z,29.70
2023-02-02T05:37:30.526Z,32.30
2023-02-02T05:38:30.523Z,29.70
2023-02-02T05:39:30.581Z,27.20
2023-02-02T05:40:30.507Z,28.20
2023-02-02T05:41:30.516Z,26.90
2023-02-02T05:42:30.499Z,29.20
2023-02-02T05:43:30.515Z,24.70
2023-02-02T05:44:30.454Z,31.90
2023-02-02T05:45:30.475Z,29.30
2023-02-02T05:46:30.464Z,31.90
2023-02-02T05:47:30.453Z,24.40
2023-02-02T05:48:30.418Z,24.20
2023-02-02T05:49:30.438Z,26.70
2023-02-02T05:50:30.377Z,28.50
2023-02-02T05:51:30.396Z,32.50
2023-02-02T05:52:30.416Z,26.90
2023-02-02T05:53:30.425Z,20.90
2023-02-02T05:54:30.373Z,29.00
2023-02-02T05:55:30.344Z,32.00
2023-02-02T05:56:30.345Z,31.40
2023-02-02T05:57:30.315Z,27.50
2023-02-02T05:58:30.346Z,25.80
2023-02-02T05:59:30.295Z,27.60
2023-02-02T06:00:30.336Z,36.20
2023-02-02T06:01:30.272Z,29.00
2023-02-02T06:02:30.273Z,25.40
2023-02-02T06:03:30.352Z,32.70
2023-02-02T06:04:30.289Z,20.90
2023-02-02T06:05:30.253Z,27.40
2023-02-02T06:06:30.382Z,26.40
2023-02-02T06:07:30.283Z,28.30
2023-02-02T06:08:30.202Z,21.50
2023-02-02T06:09:30.184Z,26.60
2023-02-02T06:10:30.192Z,29.60
2023-02-02T06:11:30.242Z,30.50
2023-02-02T06:12:30.173Z,21.30
2023-02-02T06:13:30.152Z,25.80
2023-02-02T06:14:30.165Z,21.40
2023-02-02T06:15:30.281Z,22.40
2023-02-02T06:16:30.120Z,26.00
2023-02-02T06:17:30.124Z,24.80
2023-02-02T06:18:30.095Z,25.20
2023-02-02T06:19:30.080Z,26.80
2023-02-02T06:20:30.172Z,28.70
2023-02-02T06:21:30.062Z,29.00
2023-02-02T06:22:30.142Z,29.80
2023-02-02T06:23:30.037Z,23.20
2023-02-02T06:24:30.024Z,29.60
2023-02-02T06:25:30.012Z,24.70
2023-02-02T06:26:30.089Z,17.00
2023-02-02T06:27:30.143Z,16.70
2023-02-02T06:28:31.050Z,19.70
2023-02-02T06:29:29.991Z,27.60
2023-02-02T06:30:29.982Z,16.10
2023-02-02T06:31:30.103Z,21.90
2023-02-02T06:32:29.943Z,22.60
2023-02-02T06:33:29.956Z,23.50
2023-02-02T06:34:30.059Z,26.50
2023-02-02T06:35:29.923Z,22.10
2023-02-02T06:36:29.933Z,29.20
2023-02-02T06:37:30.838Z,23.00
2023-02-02T06:38:29.924Z,16.90
2023-02-02T06:39:29.897Z,27.00
2023-02-02T06:40:29.886Z,25.60
2023-02-02T06:41:29.862Z,26.40
2023-02-02T06:42:29.922Z,23.70
2023-02-02T06:43:29.853Z,21.50
2023-02-02T06:44:29.878Z,23.30
2023-02-02T06:45:29.807Z,25.70
2023-02-02T06:46:29.821Z,20.20
2023-02-02T06:47:29.778Z,20.60
2023-02-02T06:48:30.437Z,16.00
2023-02-02T06:49:29.782Z,25.10
2023-02-02T06:50:29.748Z,28.40
2023-02-02T06:51:29.772Z,24.20
2023-02-02T06:52:29.750Z,25.10
2023-02-02T06:53:29.720Z,26.80
2023-02-02T06:54:29.764Z,31.80
2023-02-02T06:55:29.723Z,33.60
2023-02-02T06:56:29.697Z,24.30
2023-02-02T06:57:29.669Z,22.60
2023-02-02T06:58:29.676Z,15.70
2023-02-02T06:59:29.674Z,18.00
2023-02-02T07:00:29.835Z,18.90
2023-02-02T07:01:29.706Z,21.60
2023-02-02T07:02:29.690Z,24.10
2023-02-02T07:03:29.646Z,26.00
2023-02-02T07:04:29.619Z,17.60
2023-02-02T07:05:30.789Z,15.90
2023-02-02T07:06:29.610Z,14.50
2023-02-02T07:07:29.567Z,19.70
2023-02-02T07:08:29.569Z,25.30
2023-02-02T07:09:29.537Z,34.60
2023-02-02T07:11:14.414Z,33.50
2023-02-02T07:11:30.596Z,20.50
2023-02-02T07:12:29.547Z,28.30
2023-02-02T07:13:29.498Z,25.20
2023-02-02T07:14:29.535Z,31.70
2023-02-02T07:15:29.478Z,31.10
2023-02-02T07:16:29.470Z,23.80
2023-02-02T07:17:29.515Z,24.70
2023-02-02T07:18:29.488Z,25.40
2023-02-02T07:19:29.459Z,22.70
2023-02-02T07:20:29.557Z,25.50
2023-02-02T07:21:29.464Z,24.90
2023-02-02T07:22:29.409Z,22.30
2023-02-02T07:23:32.625Z,28.60
2023-02-02T07:24:29.425Z,31.60
2023-02-02T07:25:29.398Z,24.20
2023-02-02T07:26:29.435Z,27.10
2023-02-02T07:27:29.358Z,28.20
2023-02-02T07:28:29.386Z,20.90
2023-02-02T07:29:29.330Z,30.60
2023-02-02T07:30:29.448Z,22.50
2023-02-02T07:31:29.377Z,24.00
2023-02-02T07:32:29.348Z,24.70
2023-02-02T07:33:29.347Z,20.20
2023-02-02T07:34:29.339Z,22.30
2023-02-02T07:35:29.297Z,28.40
2023-02-02T07:36:29.322Z,29.00
2023-02-02T07:37:29.273Z,24.00
2023-02-02T07:38:29.269Z,28.10
2023-02-02T07:39:29.275Z,23.50
2023-02-02T07:40:29.227Z,23.70
2023-02-02T07:41:29.237Z,21.00
2023-02-02T07:42:29.199Z,27.00
2023-02-02T07:43:29.207Z,19.70
2023-02-02T07:44:29.213Z,25.10
2023-02-02T07:45:29.255Z,23.70
2023-02-02T07:46:29.181Z,22.10
2023-02-02T07:47:29.196Z,26.80
2023-02-02T07:48:29.137Z,25.40
2023-02-02T07:49:29.445Z,20.30
2023-02-02T07:50:29.134Z,22.70
2023-02-02T07:51:29.104Z,24.30
2023-02-02T07:52:29.114Z,22.60
2023-02-02T07:53:29.074Z,26.80
2023-02-02T07:54:29.073Z,24.10
2023-02-02T07:55:29.436Z,21.10
2023-02-02T07:56:29.077Z,18.30
2023-02-02T07:57:29.045Z,26.90
2023-02-02T07:58:29.066Z,24.60
2023-02-02T07:59:31.948Z,25.90
2023-02-02T08:00:29.042Z,22.80
2023-02-02T08:01:29.050Z,19.30
2023-02-02T08:02:29.061Z,22.50
2023-02-02T08:03:29.035Z,25.50
2023-02-02T08:04:29.024Z,22.00
2023-02-02T08:05:28.945Z,17.60
2023-02-02T08:06:28.998Z,22.90
2023-02-02T08:07:28.978Z,20.60
2023-02-02T08:08:28.929Z,25.70
2023-02-02T08:09:28.964Z,21.70
2023-02-02T08:10:28.904Z,26.40
2023-02-02T08:11:28.949Z,24.20
2023-02-02T08:12:28.886Z,22.40
2023-02-02T08:13:28.886Z,26.40
2023-02-02T08:14:28.875Z,26.70
2023-02-02T08:15:29.026Z,21.70
2023-02-02T08:16:28.915Z,26.60
2023-02-02T08:17:28.860Z,21.80
2023-02-02T08:18:28.813Z,19.90
2023-02-02T08:19:28.840Z,22.60
2023-02-02T08:20:28.824Z,24.00
2023-02-02T08:21:28.793Z,21.40
2023-02-02T08:22:28.836Z,20.00
2023-02-02T08:23:28.782Z,23.10
2023-02-02T08:24:28.752Z,23.80
2023-02-02T08:25:28.754Z,22.10
2023-02-02T08:26:28.859Z,24.70
2023-02-02T08:27:28.713Z,28.30
2023-02-02T08:28:28.723Z,15.50
2023-02-02T08:29:28.741Z,31.70
2023-02-02T08:30:28.718Z,23.30
2023-02-02T08:31:28.749Z,20.20
2023-02-02T08:32:28.673Z,26.30
2023-02-02T08:33:28.705Z,24.90
2023-02-02T08:34:28.671Z,21.60
2023-02-02T08:35:28.638Z,25.40
2023-02-02T08:36:28.620Z,15.00
2023-02-02T08:37:28.691Z,24.20
2023-02-02T08:38:28.622Z,26.90
2023-02-02T08:39:28.602Z,23.10
2023-02-02T08:40:28.623Z,17.90
2023-02-02T08:41:28.600Z,24.20
2023-02-02T08:42:28.589Z,21.60
2023-02-02T08:43:28.541Z,25.00
2023-02-02T08:44:59.905Z,29.00
2023-02-02T08:46:03.006Z,20.40
2023-02-02T08:46:29.675Z,25.90
2023-02-02T08:47:28.516Z,21.20
2023-02-02T08:48:28.500Z,23.30
2023-02-02T08:49:28.487Z,20.30
2023-02-02T08:50:28.469Z,30.10
2023-02-02T08:51:28.450Z,24.40
2023-02-02T08:52:28.501Z,19.90
2023-02-02T08:53:28.428Z,22.80
2023-02-02T08:54:28.443Z,16.00
2023-02-02T08:55:28.420Z,28.30
2023-02-02T08:56:28.424Z,25.10
2023-02-02T08:57:28.397Z,19.40
2023-02-02T08:58:28.442Z,19.40
2023-02-02T08:59:28.380Z,14.40
2023-02-02T09:00:28.434Z,21.70
2023-02-02T09:01:28.456Z,22.30
2023-02-02T09:02:28.432Z,19.70
2023-02-02T09:03:28.328Z,21.30
2023-02-02T09:04:28.323Z,24.70
2023-02-02T09:05:28.492Z,22.10
2023-02-02T09:06:28.297Z,19.60
2023-02-02T09:07:28.281Z,18.70
2023-02-02T09:08:28.336Z,23.90
2023-02-02T09:09:28.277Z,24.50
2023-02-02T09:10:28.289Z,26.00
2023-02-02T09:11:28.314Z,23.10
2023-02-02T09:12:28.258Z,16.90
2023-02-02T09:13:28.240Z,18.40
2023-02-02T09:14:28.322Z,17.00
2023-02-02T09:15:28.213Z,13.60
2023-02-02T09:16:28.311Z,21.70
2023-02-02T09:17:28.178Z,25.90
2023-02-02T09:18:28.204Z,19.70
2023-02-02T09:19:28.201Z,24.30
2023-02-02T09:20:28.149Z,18.10
2023-02-02T09:21:28.145Z,14.00
2023-02-02T09:22:28.956Z,18.50
2023-02-02T09:23:28.115Z,17.80
2023-02-02T09:24:28.137Z,21.90
2023-02-02T09:25:28.097Z,20.50
2023-02-02T09:26:28.201Z,15.90
2023-02-02T09:27:29.685Z,16.90
2023-02-02T09:28:28.869Z,20.10
2023-02-02T09:29:28.075Z,15.70
2023-02-02T09:30:28.265Z,17.30
2023-02-02T09:31:28.140Z,12.00
2023-02-02T09:32:28.075Z,18.20
2023-02-02T09:33:28.017Z,16.00
2023-02-02T09:34:28.025Z,17.50
2023-02-02T09:35:28.046Z,16.00
2023-02-02T09:36:27.989Z,19.70
2023-02-02T09:37:28.320Z,17.10
2023-02-02T09:38:27.963Z,17.40
2023-02-02T09:39:27.945Z,11.40
2023-02-02T09:40:27.947Z,20.80
2023-02-02T09:41:28.592Z,14.70
2023-02-02T09:42:27.955Z,17.20
2023-02-02T09:43:27.905Z,21.00
2023-02-02T09:44:27.903Z,18.30
2023-02-02T09:45:28.182Z,16.80
2023-02-02T09:46:27.875Z,10.50
2023-02-02T09:47:27.945Z,12.90
2023-02-02T09:48:27.886Z,15.50
2023-02-02T09:49:27.846Z,17.40
2023-02-02T09:50:27.842Z,15.50
2023-02-02T09:51:27.824Z,16.60
2023-02-02T09:52:27.836Z,18.40
2023-02-02T09:53:29.841Z,12.50
2023-02-02T09:54:27.784Z,16.40
2023-02-02T09:55:27.813Z,14.70
2023-02-02T09:56:27.767Z,12.80
2023-02-02T09:57:27.792Z,13.60
2023-02-02T09:58:27.943Z,17.00
2023-02-02T09:59:27.826Z,15.70
2023-02-02T10:00:27.789Z,11.50
2023-02-02T10:01:27.765Z,13.60
2023-02-02T10:02:27.711Z,18.20
2023-02-02T10:03:27.722Z,11.30
2023-02-02T10:04:27.672Z,16.50
2023-02-02T10:05:27.690Z,16.00
2023-02-02T10:06:29.415Z,14.10
2023-02-02T10:07:27.675Z,9.20
2023-02-02T10:08:34.700Z,17.90
2023-02-02T10:09:28.665Z,17.30
2023-02-02T10:10:27.647Z,10.40
2023-02-02T10:11:27.641Z,18.20
2023-02-02T10:12:27.601Z,16.20
2023-02-02T10:13:27.616Z,20.30
2023-02-02T10:14:27.599Z,20.80
2023-02-02T10:15:27.911Z,14.60
2023-02-02T10:16:27.578Z,22.20
2023-02-02T10:17:27.563Z,18.50
2023-02-02T10:18:27.531Z,21.30
2023-02-02T10:19:27.545Z,18.50
2023-02-02T10:20:27.915Z,15.40
2023-02-02T10:21:27.575Z,14.20
2023-02-02T10:22:27.490Z,20.10
2023-02-02T10:23:27.484Z,23.70
2023-02-02T10:24:27.481Z,26.80
2023-02-02T10:25:27.461Z,20.80
2023-02-02T10:26:27.501Z,25.60
2023-02-02T10:27:27.607Z,18.70
2023-02-02T10:28:27.420Z,24.50
2023-02-02T10:29:30.851Z,24.50
2023-02-02T10:30:28.401Z,26.30
2023-02-02T10:31:27.523Z,22.60
2023-02-02T10:32:27.387Z,24.50
2023-02-02T10:33:27.416Z,23.40
2023-02-02T10:34:27.395Z,26.90
2023-02-02T10:35:27.408Z,28.60
2023-02-02T10:36:27.330Z,23.70
2023-02-02T10:37:27.368Z,25.60
2023-02-02T10:38:27.320Z,24.40
2023-02-02T10:39:27.351Z,26.30
2023-02-02T10:40:27.627Z,28.20
2023-02-02T10:41:27.316Z,24.40
2023-02-02T10:42:27.345Z,28.40
2023-02-02T10:43:27.297Z,22.70
2023-02-02T10:44:27.305Z,31.40
2023-02-02T10:45:27.236Z,35.60
2023-02-02T10:46:27.461Z,30.00
2023-02-02T10:47:27.263Z,39.50
2023-02-02T10:48:27.212Z,30.50
2023-02-02T10:49:27.240Z,28.40
2023-02-02T10:50:27.737Z,34.20
2023-02-02T10:51:27.177Z,26.30
2023-02-02T10:52:27.308Z,23.80
2023-02-02T10:53:27.179Z,27.80
2023-02-02T10:54:27.146Z,28.50
2023-02-02T10:55:28.919Z,29.40
2023-02-02T10:56:27.147Z,29.80
2023-02-02T10:57:27.243Z,26.40
2023-02-02T10:58:27.130Z,29.10
2023-02-02T10:59:27.105Z,27.40
2023-02-02T11:00:27.329Z,22.40
2023-02-02T11:01:27.088Z,30.70
2023-02-02T11:02:27.095Z,30.30
2023-02-02T11:03:27.118Z,27.20
2023-02-02T11:04:27.039Z,27.70
2023-02-02T11:05:27.047Z,27.50
2023-02-02T11:06:27.028Z,24.20
2023-02-02T11:07:27.013Z,23.30
2023-02-02T11:08:27.040Z,29.60
2023-02-02T11:09:26.988Z,28.10
2023-02-02T11:10:27.289Z,32.80
2023-02-02T11:11:26.977Z,28.00
2023-02-02T11:12:26.973Z,28.00
2023-02-02T11:13:26.976Z,24.40
2023-02-02T11:14:26.972Z,30.60
2023-02-02T11:15:26.940Z,33.40
2023-02-02T11:16:32.553Z,25.50
2023-02-02T11:17:27.937Z,29.80
2023-02-02T11:18:26.908Z,26.20
2023-02-02T11:19:26.936Z,28.40
2023-02-02T11:20:27.094Z,34.50
2023-02-02T11:21:26.899Z,30.90
2023-02-02T11:22:26.877Z,28.20
2023-02-02T11:23:26.846Z,25.30
2023-02-02T11:24:26.874Z,26.80
2023-02-02T11:25:26.882Z,31.40
2023-02-02T11:26:26.843Z,29.00
2023-02-02T11:27:26.825Z,31.40
2023-02-02T11:28:26.810Z,34.80
2023-02-02T11:29:26.778Z,25.10
2023-02-02T11:30:27.018Z,33.40
2023-02-02T11:31:26.948Z,37.10
2023-02-02T11:32:26.757Z,23.50
2023-02-02T11:33:26.733Z,36.30
2023-02-02T11:34:26.784Z,14.90
2023-02-02T11:35:26.735Z,27.20
2023-02-02T11:36:26.756Z,24.70
2023-02-02T11:37:26.698Z,24.90
2023-02-02T11:38:26.685Z,23.60
2023-02-02T11:39:26.687Z,24.80
2023-02-02T11:40:27.048Z,27.40
2023-02-02T11:41:26.645Z,29.00
2023-02-02T11:42:27.496Z,26.40
2023-02-02T11:43:26.654Z,21.80
2023-02-02T11:44:26.647Z,23.20
2023-02-02T11:45:26.624Z,23.80
2023-02-02T11:46:26.656Z,21.10
2023-02-02T11:47:26.622Z,23.80
2023-02-02T11:48:26.941Z,19.50
2023-02-02T11:49:26.583Z,22.50
2023-02-02T11:50:26.994Z,28.00
2023-02-02T11:51:26.788Z,29.10
2023-02-02T11:52:26.525Z,28.20
2023-02-02T11:53:26.542Z,19.30
2023-02-02T11:54:26.513Z,23.60
2023-02-02T11:55:26.502Z,18.90
2023-02-02T11:56:26.496Z,20.70
2023-02-02T11:57:26.513Z,23.80
2023-02-02T11:58:26.494Z,23.70
2023-02-02T11:59:26.461Z,27.20
2023-02-02T12:00:26.920Z,19.70
2023-02-02T12:01:26.471Z,25.90
2023-02-02T12:02:26.420Z,20.40
2023-02-02T12:03:26.456Z,24.40
2023-02-02T12:04:26.556Z,27.40
2023-02-02T12:05:26.453Z,20.20
2023-02-02T12:06:26.404Z,18.70
2023-02-02T12:07:26.374Z,15.90
2023-02-02T12:08:26.362Z,21.10
2023-02-02T12:09:26.345Z,19.70
2023-02-02T12:10:26.826Z,26.30
2023-02-02T12:11:26.355Z,21.20
2023-02-02T12:12:26.312Z,19.80
2023-02-02T12:13:26.332Z,27.00
2023-02-02T12:14:26.291Z,20.80
2023-02-02T12:15:26.309Z,22.00
2023-02-02T12:16:26.356Z,20.40
2023-02-02T12:17:26.261Z,24.40
2023-02-02T12:18:26.322Z,19.90
2023-02-02T12:19:26.241Z,13.60
2023-02-02T12:20:26.740Z,24.70
2023-02-02T12:21:26.221Z,21.10
2023-02-02T12:22:26.231Z,17.80
2023-02-02T12:23:26.423Z,22.20
2023-02-02T12:24:26.291Z,19.00
2023-02-02T12:25:26.768Z,23.30
2023-02-02T12:26:26.239Z,23.20
2023-02-02T12:27:26.222Z,16.90
2023-02-02T12:28:26.146Z,21.20
2023-02-02T12:29:26.230Z,23.70
2023-02-02T12:30:26.448Z,22.00
2023-02-02T12:31:26.167Z,20.70
2023-02-02T12:32:26.101Z,23.70
2023-02-02T12:33:26.095Z,22.80
2023-02-02T12:34:26.101Z,16.50
2023-02-02T12:35:26.274Z,25.10
2023-02-02T12:36:26.091Z,19.50
2023-02-02T12:37:26.050Z,21.90
2023-02-02T12:38:26.039Z,16.90
2023-02-02T12:39:26.050Z,24.30
2023-02-02T12:40:26.425Z,18.00
2023-02-02T12:41:26.064Z,22.90
2023-02-02T12:42:26.028Z,23.60
2023-02-02T12:43:26.015Z,24.50
2023-02-02T12:44:25.989Z,22.00
2023-02-02T12:45:26.073Z,19.10
2023-02-02T12:46:25.949Z,20.00
2023-02-02T12:47:25.994Z,18.10
2023-02-02T12:48:25.957Z,27.80
2023-02-02T12:49:25.986Z,18.60
2023-02-02T12:50:26.328Z,16.60
2023-02-02T12:51:25.919Z,14.90
2023-02-02T12:52:25.896Z,21.90
2023-02-02T12:53:25.919Z,19.40